Time;durP1;ratioP1;P1;durP2;ratioP2;P2;SDS_P1;SDS_P2;PMS_P1;PMS_P2;Temp;Humidity;BMP_temperature;BMP_pressure;BME280_temperature;BME280_humidity;BME280_pressure;Samples;Min_cycle;Max_cycle;Signal;HPM_P1;HPM_P2
2022/03/13 00:00:04;;;;;;;24.85;11.35;;;;;;;2.05;52.43;101104.34;5029845;28;20171;-71
2022/03/13 00:02:40;;;;;;;29.02;10.40;;;;;;;2.07;52.67;101126.19;5047950;28;20047;-72
2022/03/13 00:05:16;;;;;;;22.75;11.27;;;;;;;2.06;52.68;101113.09;5047553;28;20045;-71
2022/03/13 00:07:42;;;;;;;19.42;10.10;;;;;;;2.14;52.51;101120.53;5029728;28;20037;-72
2022/03/13 00:10:08;;;;;;;18.98;10.18;;;;;;;2.04;52.63;101096.56;5046240;28;20079;-72
2022/03/13 00:12:35;;;;;;;22.70;10.95;;;;;;;2.03;52.90;101108.88;5029792;28;20036;-71
2022/03/13 00:15:03;;;;;;;21.92;10.27;;;;;;;1.98;52.95;101100.44;5029674;28;20037;-71
2022/03/13 00:17:29;;;;;;;27.95;11.43;;;;;;;1.96;53.13;101128.66;5013440;28;20045;-72
2022/03/13 00:20:00;;;;;;;25.83;10.95;;;;;;;1.88;53.54;101144.09;5045267;28;20024;-72
2022/03/13 00:22:36;;;;;;;20.60;10.77;;;;;;;1.96;54.29;101202.38;5046348;28;20060;-71
2022/03/13 00:25:08;;;;;;;22.33;11.68;;;;;;;1.94;54.74;101235.88;5047221;28;20033;-72
2022/03/13 00:27:35;;;;;;;21.10;11.00;;;;;;;2.00;55.36;101287.31;5029467;28;20075;-71
2022/03/13 00:30:05;;;;;;;30.48;12.18;;;;;;;1.96;55.91;101280.53;5046934;28;20108;-72
2022/03/13 00:32:30;;;;;;;24.10;11.32;;;;;;;1.93;55.89;101291.28;5029295;28;20041;-71
2022/03/13 00:34:56;;;;;;;21.92;11.20;;;;;;;1.87;56.25;101290.72;5045856;28;20135;-72
2022/03/13 00:37:21;;;;;;;26.42;13.90;;;;;;;1.86;56.10;101291.63;5029256;28;20090;-71
2022/03/13 00:39:49;;;;;;;23.53;11.90;;;;;;;1.85;56.13;101286.44;5046902;28;20024;-72
2022/03/13 00:42:15;;;;;;;22.83;11.38;;;;;;;1.78;56.20;101271.97;5046009;28;20042;-71
2022/03/13 00:44:41;;;;;;;19.95;10.05;;;;;;;1.74;56.43;101267.84;5047089;28;20028;-72
2022/03/13 00:47:06;;;;;;;23.55;11.57;;;;;;;1.87;55.97;101277.56;5028861;28;20037;-72
2022/03/13 00:49:32;;;;;;;21.85;11.13;;;;;;;1.81;55.58;101230.53;5028061;28;20478;-71
2022/03/13 00:52:01;;;;;;;18.55;11.90;;;;;;;1.88;55.24;101220.47;5046988;28;20741;-72
2022/03/13 00:54:27;;;;;;;25.35;11.07;;;;;;;1.77;55.60;101205.31;5046745;28;20136;-72
2022/03/13 00:56:54;;;;;;;20.90;11.63;;;;;;;1.67;55.67;101185.78;5046623;28;20027;-71
2022/03/13 00:59:21;;;;;;;29.15;11.27;;;;;;;1.81;55.54;101205.97;5046378;28;20036;-71
2022/03/13 01:01:48;;;;;;;25.33;11.63;;;;;;;1.79;55.15;101179.75;5046487;28;20029;-72
2022/03/13 01:04:14;;;;;;;23.80;11.18;;;;;;;1.78;55.07;101174.56;5046589;28;20536;-71
2022/03/13 01:06:40;;;;;;;27.60;12.20;;;;;;;1.75;55.08;101175.59;5045260;28;20040;-71
2022/03/13 01:09:06;;;;;;;;;;;;;;;1.77;55.14;101160.56;5046792;28;20037;-72
2022/03/13 01:11:31;;;;;;;21.88;11.60;;;;;;;1.73;54.88;101132.72;5028688;28;19966;-72
2022/03/13 01:13:57;;;;;;;21.43;10.90;;;;;;;1.75;54.69;101133.47;5045101;28;20032;-72
2022/03/13 01:16:26;;;;;;;27.25;12.82;;;;;;;1.70;54.39;101093.44;5046410;28;20044;-71
2022/03/13 01:18:57;;;;;;;25.77;11.88;;;;;;;1.68;54.45;101096.16;5046116;28;20236;-72
2022/03/13 01:21:24;;;;;;;24.73;10.65;;;;;;;1.66;54.35;101095.44;5028418;28;20032;-72
2022/03/13 01:23:55;;;;;;;24.73;11.43;;;;;;;1.58;54.85;101096.84;5046115;28;20442;-71
2022/03/13 01:26:24;;;;;;;21.95;10.90;;;;;;;1.56;55.20;101123.25;5045105;28;20041;-71
2022/03/13 01:28:55;;;;;;;20.60;10.88;;;;;;;1.54;55.16;101119.03;5044889;28;20056;-71
2022/03/13 01:31:24;;;;;;;26.77;11.70;;;;;;;1.53;54.89;101107.66;5028293;28;20044;-71
2022/03/13 01:33:49;;;;;;;24.63;11.27;;;;;;;1.55;54.90;101116.31;5044893;28;20025;-72
2022/03/13 01:36:16;;;;;;;24.58;11.40;;;;;;;1.53;54.79;101102.41;5046061;28;20083;-72
2022/03/13 01:38:41;;;;;;;23.00;10.80;;;;;;;1.47;55.27;101110.66;5044290;28;20571;-71
2022/03/13 01:41:07;;;;;;;24.80;11.63;;;;;;;1.48;55.20;101113.22;5044775;28;20051;-71
2022/03/13 01:43:34;;;;;;;23.42;11.02;;;;;;;1.47;55.41;101121.19;5044760;28;20447;-71
2022/03/13 01:46:01;;;;;;;22.42;11.68;;;;;;;1.41;55.36;101111.91;5045981;28;20032;-71
2022/03/13 01:48:27;;;;;;;27.05;11.45;;;;;;;1.46;55.53;101130.03;5044467;28;20035;-71
2022/03/13 01:50:52;;;;;;;;;;;;;;;1.48;55.06;101115.00;5046690;28;20131;-71
2022/03/13 01:53:20;;;;;;;26.42;10.80;;;;;;;1.53;54.83;101085.78;5044710;28;20046;-71
2022/03/13 01:55:46;;;;;;;24.55;11.27;;;;;;;1.39;54.71;101062.94;5027800;28;20558;-71
2022/03/13 01:58:12;;;;;;;23.92;11.68;;;;;;;1.39;54.60;101058.53;5044550;28;20032;-71
2022/03/13 02:00:38;;;;;;;22.70;12.10;;;;;;;1.37;54.63;101055.13;5027674;28;20037;-71
2022/03/13 02:03:04;;;;;;;24.60;11.32;;;;;;;1.38;54.47;101056.84;5041931;28;20035;-71
2022/03/13 02:05:34;;;;;;;29.30;11.88;;;;;;;1.34;54.25;101026.41;5055607;28;20025;-71
2022/03/13 02:08:10;;;;;;;28.00;12.10;;;;;;;1.30;54.32;101029.31;5047172;28;20036;-71
2022/03/13 02:10:35;;;;;;;20.15;8.73;;;;;;;1.17;54.27;101001.16;5065528;28;20056;-71
2022/03/13 02:13:01;;;;;;;27.80;13.57;;;;;;;1.08;54.40;101001.72;5047642;28;20478;-72
2022/03/13 02:15:29;;;;;;;28.92;10.95;;;;;;;1.10;54.38;101007.75;5064138;28;20382;-71
2022/03/13 02:18:02;;;;;;;25.42;11.32;;;;;;;1.12;54.40;101021.63;5048079;28;20044;-71
2022/03/13 02:20:27;;;;;;;25.55;10.68;;;;;;;1.05;54.42;100991.38;5064049;28;20036;-71
2022/03/13 02:23:00;;;;;;;21.17;12.15;;;;;;;1.01;54.38;100984.66;5065320;28;20074;-71
2022/03/13 02:25:31;;;;;;;22.08;10.10;;;;;;;1.07;54.44;101007.91;5064085;28;20037;-71
2022/03/13 02:27:57;;;;;;;21.27;11.38;;;;;;;1.19;53.96;100996.63;5065175;28;20041;-71
2022/03/13 02:30:24;;;;;;;28.52;10.48;;;;;;;1.18;53.66;100981.78;5063981;28;20191;-70
2022/03/13 02:32:51;;;;;;;21.95;11.48;;;;;;;1.24;53.49;100984.06;5030948;28;20036;-71
2022/03/13 02:35:18;;;;;;;20.52;10.82;;;;;;;1.14;53.49;100956.63;5065198;28;20020;-71
2022/03/13 02:37:43;;;;;;;22.20;10.77;;;;;;;1.08;53.39;100943.88;5064147;28;20457;-71
2022/03/13 02:40:23;;;;;;;19.33;9.93;;;;;;;1.08;53.33;100950.91;5047273;28;20094;-72
2022/03/13 02:42:53;;;;;;;25.52;11.25;;;;;;;0.99;53.45;100934.78;5065485;28;20322;-72
2022/03/13 02:45:37;;;;;;;24.83;11.75;;;;;;;0.95;53.56;100943.78;5064051;28;20029;-72
2022/03/13 02:48:05;;;;;;;21.90;10.88;;;;;;;1.01;53.61;100950.47;5047187;28;20083;-72
2022/03/13 02:50:31;;;;;;;17.77;9.98;;;;;;;0.90;53.63;100935.34;5064826;28;20033;-72
2022/03/13 02:52:57;;;;;;;23.88;11.25;;;;;;;0.80;54.00;100945.59;5047275;28;20811;-71
2022/03/13 02:55:23;;;;;;;25.63;12.23;;;;;;;0.76;54.03;100962.47;5063673;28;20028;-72
2022/03/13 02:57:48;;;;;;;26.30;10.57;;;;;;;0.77;54.17;100963.31;5065039;28;20028;-72
2022/03/13 03:00:15;;;;;;;24.83;11.33;;;;;;;0.67;54.26;100959.56;5063318;28;20031;-72
2022/03/13 03:02:41;;;;;;;25.65;10.77;;;;;;;0.76;54.43;100978.25;5064817;28;20036;-72
2022/03/13 03:05:08;;;;;;;22.88;10.90;;;;;;;0.76;54.39;100977.41;5063317;28;20544;-72
2022/03/13 03:07:35;;;;;;;23.25;10.93;;;;;;;0.79;54.09;100978.06;5063121;28;20051;-72
2022/03/13 03:10:00;;;;;;;;;;;;;;;0.68;54.33;100956.88;5063642;28;20436;-72
2022/03/13 03:12:27;;;;;;;25.67;10.77;;;;;;;0.72;54.02;100963.59;5065957;28;19920;-71
2022/03/13 03:14:54;;;;;;;22.77;11.30;;;;;;;0.60;54.28;100945.97;5068172;28;20024;-73
2022/03/13 03:17:19;;;;;;;23.98;12.23;;;;;;;0.60;54.32;100970.44;5068466;28;20035;-71
2022/03/13 03:19:45;;;;;;;25.10;11.13;;;;;;;0.68;54.37;100982.28;5067800;28;20666;-72
2022/03/13 03:22:10;;;;;;;21.05;10.68;;;;;;;0.60;54.38;100959.09;5050097;28;20094;-71
2022/03/13 03:24:36;;;;;;;34.28;12.13;;;;;;;0.57;54.37;100967.19;5066838;28;20037;-72
2022/03/13 03:27:01;;;;;;;23.87;10.53;;;;;;;0.51;54.55;100968.38;5068200;28;20029;-71
2022/03/13 03:29:29;;;;;;;17.92;9.65;;;;;;;0.59;54.57;100994.22;5067983;28;20095;-72
2022/03/13 03:31:55;;;;;;;29.67;10.85;;;;;;;0.53;54.41;100968.28;5066688;28;20033;-72
2022/03/13 03:34:23;;;;;;;26.70;11.48;;;;;;;0.63;54.10;100974.66;5066631;28;20127;-72
2022/03/13 03:36:55;;;;;;;20.95;11.07;;;;;;;0.60;53.82;100936.28;5066510;28;20051;-72
2022/03/13 03:39:22;;;;;;;24.92;11.07;;;;;;;0.56;53.77;100928.69;5067510;28;20060;-72
2022/03/13 03:41:49;;;;;;;22.50;11.02;;;;;;;0.49;53.84;100914.25;5067964;28;20047;-71
2022/03/13 03:44:15;;;;;;;24.90;11.27;;;;;;;0.64;53.57;100918.56;5066463;28;20036;-72
2022/03/13 03:46:42;;;;;;;25.45;11.57;;;;;;;0.59;53.51;100908.34;5067767;28;20039;-71
2022/03/13 03:49:07;;;;;;;23.25;10.50;;;;;;;0.56;53.29;100907.66;5067521;28;20218;-72
2022/03/13 03:51:33;;;;;;;27.15;11.00;;;;;;;0.56;53.24;100908.53;5049875;28;20111;-71
2022/03/13 03:53:59;;;;;;;21.67;9.93;;;;;;;0.46;53.45;100901.31;5066440;28;20032;-72
2022/03/13 03:56:25;;;;;;;27.63;11.57;;;;;;;0.36;53.91;100901.84;5066339;28;20104;-72
2022/03/13 03:58:51;;;;;;;19.55;9.90;;;;;;;0.39;53.92;100921.84;5066032;28;20392;-72
2022/03/13 04:01:16;;;;;;;24.58;9.07;;;;;;;0.33;53.92;100920.44;5066228;28;20044;-72
2022/03/13 04:03:42;;;;;;;19.15;8.82;;;;;;;0.37;53.54;100885.16;5065852;28;20085;-72
2022/03/13 04:06:07;;;;;;;22.80;10.73;;;;;;;0.33;53.52;100881.03;5067348;28;20063;-72
2022/03/13 04:08:33;;;;;;;22.60;9.73;;;;;;;0.35;53.50;100901.94;5064867;28;20032;-72
2022/03/13 04:11:00;;;;;;;23.15;11.05;;;;;;;0.32;53.55;100889.84;5067037;28;20032;-72
2022/03/13 04:13:26;;;;;;;21.85;10.38;;;;;;;0.34;53.56;100900.25;5067383;28;20470;-72
2022/03/13 04:15:52;;;;;;;28.08;11.52;;;;;;;0.22;53.51;100872.97;5067131;28;20036;-72
2022/03/13 04:18:17;;;;;;;19.73;10.23;;;;;;;0.21;53.35;100866.00;5081230;22;20030;-76
2022/03/13 04:20:44;;;;;;;23.63;10.10;;;;;;;0.19;53.53;100878.41;5065937;28;20052;-77
2022/03/13 04:23:09;;;;;;;22.35;10.85;;;;;;;0.16;53.70;100873.31;5049059;28;20111;-76
2022/03/13 04:25:35;;;;;;;18.90;10.85;;;;;;;0.09;53.50;100878.09;5048596;28;20615;-74
2022/03/13 04:28:00;;;;;;;17.48;9.27;;;;;;;0.25;53.45;100895.56;5032735;28;20074;-76
2022/03/13 04:30:31;;;;;;;20.70;11.30;;;;;;;0.12;53.66;100885.81;5049193;28;20094;-76
2022/03/13 04:32:57;;;;;;;21.73;9.75;;;;;;;0.10;53.93;100918.34;5065918;28;20123;-76
2022/03/13 04:35:24;;;;;;;21.73;10.02;;;;;;;0.26;54.09;100955.03;5065891;28;20112;-76
2022/03/13 04:37:50;;;;;;;21.48;10.07;;;;;;;0.27;54.08;100968.06;5048259;28;20036;-75
2022/03/13 04:40:15;;;;;;;21.02;10.25;;;;;;;0.34;54.23;100993.03;5031992;28;20070;-75
2022/03/13 04:42:41;;;;;;;25.10;9.98;;;;;;;0.31;54.48;100997.63;5066890;28;20060;-76
2022/03/13 04:45:06;;;;;;;18.37;9.87;;;;;;;0.26;54.55;101005.78;5049085;28;20143;-74
2022/03/13 04:47:32;;;;;;;21.73;9.38;;;;;;;0.21;54.88;101018.31;5048879;28;20052;-74
2022/03/13 04:49:59;;;;;;;18.50;9.73;;;;;;;0.16;55.05;101030.88;5032150;28;20047;-74
2022/03/13 04:52:25;;;;;;;18.98;9.95;;;;;;;0.23;55.31;101050.59;5031091;28;20032;-75
2022/03/13 04:54:51;;;;;;;20.13;9.90;;;;;;;0.22;55.23;101056.78;5047547;28;20032;-74
2022/03/13 04:57:17;;;;;;;;;;;;;;;0.26;55.32;101060.94;5049012;28;20562;-75
2022/03/13 04:59:42;;;;;;;18.70;10.25;;;;;;;0.27;54.81;101023.22;5066414;28;19912;-74
2022/03/13 05:02:07;;;;;;;22.97;10.93;;;;;;;0.23;54.77;101003.31;5032142;28;20036;-75
2022/03/13 05:04:34;;;;;;;19.98;9.60;;;;;;;0.18;54.74;101000.13;5048828;28;20679;-75
2022/03/13 05:07:01;;;;;;;18.42;10.70;;;;;;;0.21;54.65;101007.81;5066734;28;20035;-74
2022/03/13 05:09:26;;;;;;;20.05;9.75;;;;;;;0.38;54.10;101007.69;5065021;28;20103;-74
2022/03/13 05:11:53;;;;;;;18.50;8.68;;;;;;;0.36;53.69;100959.66;5065974;28;20151;-74
2022/03/13 05:14:19;;;;;;;18.98;9.48;;;;;;;0.34;53.64;100940.50;5030874;28;20035;-75
2022/03/13 05:16:44;;;;;;;18.17;8.68;;;;;;;0.32;53.79;100967.78;5032218;28;20123;-75
2022/03/13 05:19:10;;;;;;;18.50;10.47;;;;;;;0.26;53.92;100969.03;5048255;28;20064;-74
2022/03/13 05:21:36;;;;;;;18.75;8.75;;;;;;;0.26;53.75;100941.88;5065440;28;20691;-74
2022/03/13 05:24:02;;;;;;;21.85;9.60;;;;;;;0.21;53.67;100939.53;5048273;28;20025;-74
2022/03/13 05:26:27;;;;;;;24.52;10.40;;;;;;;0.21;53.36;100902.78;5031985;28;20055;-75
2022/03/13 05:28:53;;;;;;;17.90;8.65;;;;;;;0.16;53.23;100883.81;5064591;28;20036;-74
2022/03/13 05:31:19;;;;;;;15.02;8.35;;;;;;;0.18;52.74;100877.53;5047333;28;20040;-74
2022/03/13 05:33:44;;;;;;;20.10;9.10;;;;;;;0.23;52.62;100869.38;5048424;28;20036;-74
2022/03/13 05:36:09;;;;;;;21.00;9.90;;;;;;;0.25;52.48;100875.41;5049098;28;20044;-74
2022/03/13 05:38:35;;;;;;;22.93;9.87;;;;;;;0.20;52.59;100866.97;5066623;28;20043;-74
2022/03/13 05:41:05;;;;;;;22.40;8.02;;;;;;;0.23;52.75;100885.16;5048207;28;20859;-74
2022/03/13 05:43:32;;;;;;;18.33;8.85;;;;;;;0.28;52.68;100896.25;5048737;28;20036;-76
2022/03/13 05:45:57;;;;;;;16.85;8.50;;;;;;;0.15;52.65;100879.53;5048963;28;20123;-75
2022/03/13 05:48:23;;;;;;;16.85;9.05;;;;;;;0.26;53.11;100934.88;5065591;28;20040;-76
2022/03/13 05:50:48;;;;;;;26.88;10.75;;;;;;;0.27;52.95;100923.41;5048242;28;20119;-75
2022/03/13 05:53:14;;;;;;;17.05;9.05;;;;;;;0.31;52.92;100932.81;5067156;28;20546;-76
2022/03/13 05:55:40;;;;;;;23.13;9.80;;;;;;;0.29;52.47;100894.44;5048855;28;20025;-76
2022/03/13 05:58:05;;;;;;;21.45;10.30;;;;;;;0.27;52.70;100891.06;5049009;28;20027;-75
2022/03/13 06:00:32;;;;;;;19.57;8.83;;;;;;;0.28;52.71;100898.00;5048650;28;20715;-75
2022/03/13 06:02:58;;;;;;;24.73;9.15;;;;;;;0.19;53.04;100900.25;5066958;28;20040;-76
2022/03/13 06:05:24;;;;;;;19.60;8.60;;;;;;;0.16;52.73;100889.94;5048683;28;20032;-76
2022/03/13 06:07:51;;;;;;;17.95;8.63;;;;;;;0.34;52.64;100914.25;5065772;28;20062;-76
2022/03/13 06:10:16;;;;;;;19.85;8.80;;;;;;;0.34;52.42;100903.72;5048291;28;20174;-75
2022/03/13 06:12:42;;;;;;;18.83;9.27;;;;;;;0.26;52.60;100903.38;5032364;28;20155;-75
2022/03/13 06:15:09;;;;;;;;;;;;;;;0.30;52.56;100904.00;5049191;28;20032;-75
2022/03/13 06:17:41;;;;;;;19.02;8.95;;;;;;;0.17;52.38;100875.03;5032367;28;19912;-76
2022/03/13 06:20:07;;;;;;;21.48;9.52;;;;;;;0.22;52.37;100886.09;5048464;28;20059;-76
2022/03/13 06:22:33;;;;;;;22.30;8.13;;;;;;;0.25;52.46;100893.78;5048913;28;20024;-75
2022/03/13 06:24:58;;;;;;;18.17;9.73;;;;;;;0.25;52.32;100895.56;5064995;28;20404;-76
2022/03/13 06:27:24;;;;;;;23.17;10.43;;;;;;;0.27;52.50;100902.41;5064615;28;20063;-75
2022/03/13 06:29:49;;;;;;;18.97;8.67;;;;;;;0.33;52.46;100943.25;5030155;28;20077;-75
2022/03/13 06:32:15;;;;;;;22.03;9.83;;;;;;;0.41;52.39;100939.19;5065953;28;20266;-76
2022/03/13 06:34:41;;;;;;;18.98;9.18;;;;;;;0.38;52.03;100930.66;5048575;28;20029;-75
2022/03/13 06:37:08;;;;;;;;;;;;;;;0.49;52.18;100932.63;5032528;28;20027;-75
2022/03/13 06:39:33;;;;;;;19.75;9.27;;;;;;;0.58;51.58;100921.56;5066076;28;19912;-75
2022/03/13 06:41:59;;;;;;;17.63;8.77;;;;;;;0.60;51.61;100922.31;5066490;28;20496;-75
2022/03/13 06:44:24;;;;;;;19.23;9.37;;;;;;;0.59;51.67;100907.50;5047627;28;20500;-75
2022/03/13 06:46:50;;;;;;;22.80;10.13;;;;;;;0.99;50.92;100965.50;5048644;28;20096;-75
2022/03/13 06:49:17;;;;;;;22.35;10.52;;;;;;;1.45;50.33;100991.50;5070003;28;20277;-75
2022/03/13 06:51:42;;;;;;;17.40;9.07;;;;;;;1.65;49.71;100967.38;5052393;28;20053;-76
2022/03/13 06:54:09;;;;;;;23.80;10.10;;;;;;;1.89;49.28;100979.91;5051441;28;20628;-76
2022/03/13 06:56:35;;;;;;;20.30;10.85;;;;;;;1.84;49.23;100940.69;5050165;28;20218;-75
2022/03/13 06:59:03;;;;;;;18.30;9.70;;;;;;;2.06;48.71;100915.56;5066495;28;20028;-76
2022/03/13 07:01:37;;;;;;;18.92;10.80;;;;;;;2.22;48.71;100968.06;5050200;28;20040;-75
2022/03/13 07:04:04;;;;;;;19.10;10.02;;;;;;;2.19;47.89;100894.50;5066939;28;20057;-76
2022/03/13 07:06:29;;;;;;;;;;;;;;;2.19;48.27;100919.06;5051536;28;20488;-75
2022/03/13 07:08:55;;;;;;;;;;;;;;;2.31;48.03;100901.56;5050999;28;19916;-76
2022/03/13 07:11:21;;;;;;;;;;;;;;;1.99;48.25;100837.91;5052000;28;19915;-75
2022/03/13 07:13:48;;;;;;;20.73;9.98;;;;;;;1.96;48.85;100889.00;5051546;28;20452;-76
2022/03/13 07:16:15;;;;;;;21.70;9.50;;;;;;;2.01;48.65;100905.34;5051143;28;20024;-76
2022/03/13 07:18:42;;;;;;;24.65;11.23;;;;;;;2.12;48.67;100928.31;5051871;28;20044;-76
2022/03/13 07:21:09;;;;;;;19.50;9.52;;;;;;;2.27;48.30;100931.69;5069518;28;20182;-76
2022/03/13 07:23:35;;;;;;;23.83;9.75;;;;;;;2.32;48.05;100895.38;5069445;28;20032;-76
2022/03/13 07:26:00;;;;;;;18.48;9.48;;;;;;;2.27;47.91;100889.56;5069470;28;20393;-75
2022/03/13 07:28:26;;;;;;;23.27;10.90;;;;;;;2.63;47.75;100951.22;5051648;28;20079;-76
2022/03/13 07:30:52;;;;;;;18.50;9.70;;;;;;;2.24;47.76;100829.19;5068995;28;20136;-76
2022/03/13 07:33:17;;;;;;;21.88;9.88;;;;;;;2.58;47.46;100898.84;5069539;28;20036;-76
2022/03/13 07:35:44;;;;;;;16.17;9.77;;;;;;;2.51;47.30;100860.69;5051661;28;20035;-76
2022/03/13 07:38:09;;;;;;;15.88;8.88;;;;;;;2.96;47.35;100967.31;5069391;28;20067;-76
2022/03/13 07:40:35;;;;;;;20.90;11.43;;;;;;;2.40;46.68;100742.00;5069114;28;20048;-76
2022/03/13 07:43:01;;;;;;;24.42;11.07;;;;;;;2.65;46.72;100828.91;5051566;28;20405;-76
2022/03/13 07:45:27;;;;;;;20.33;9.68;;;;;;;2.77;46.42;100814.00;5069598;28;20030;-76
2022/03/13 07:47:57;;;;;;;16.67;10.43;;;;;;;2.90;45.50;100751.53;5051726;28;20037;-76
2022/03/13 07:50:24;;;;;;;20.83;9.80;;;;;;;3.07;46.52;100878.69;5051424;28;20454;-76
2022/03/13 07:52:50;;;;;;;53.65;27.58;;;;;;;3.81;49.15;101220.91;5034061;28;20055;-76
2022/03/13 07:55:16;;;;;;;19.38;10.27;;;;;;;3.86;47.85;101090.31;5050280;28;20036;-75
2022/03/13 07:57:41;;;;;;;19.30;10.73;;;;;;;4.27;48.48;101197.47;5050596;28;20063;-76
2022/03/13 08:00:08;;;;;;;19.17;10.43;;;;;;;4.23;46.51;100985.41;5050355;28;20036;-74
2022/03/13 08:02:44;;;;;;;29.52;10.73;;;;;;;4.81;46.03;101057.66;5068912;28;20115;-76
2022/03/13 08:05:10;;;;;;;17.92;9.90;;;;;;;5.02;45.65;101062.28;5049882;28;20064;-76
2022/03/13 08:07:35;;;;;;;17.48;9.98;;;;;;;4.61;43.30;100755.06;5067644;28;20052;-75
2022/03/13 08:10:01;;;;;;;20.87;9.43;;;;;;;4.00;43.28;100630.47;5067348;28;20143;-75
2022/03/13 08:12:27;;;;;;;19.65;9.40;;;;;;;3.72;43.48;100590.44;5069025;28;20029;-75
2022/03/13 08:14:52;;;;;;;21.90;10.93;;;;;;;4.68;43.41;100815.38;5050027;28;20429;-75
2022/03/13 08:17:18;;;;;;;24.83;10.18;;;;;;;4.27;42.77;100631.88;5049343;28;20024;-75
2022/03/13 08:19:43;;;;;;;17.30;9.55;;;;;;;4.43;42.65;100648.16;5049663;28;20037;-75
2022/03/13 08:22:09;;;;;;;19.60;10.98;;;;;;;4.21;42.55;100589.13;5050236;28;20107;-75
2022/03/13 08:24:34;;;;;;;18.23;10.07;;;;;;;4.96;42.49;100738.09;5032700;28;20582;-76
2022/03/13 08:27:00;;;;;;;20.87;10.93;;;;;;;4.91;42.14;100703.25;5049612;28;20477;-76
2022/03/13 08:29:27;;;;;;;18.90;10.20;;;;;;;5.79;41.01;100775.38;5048639;28;20124;-75
2022/03/13 08:31:53;;;;;;;22.45;9.98;;;;;;;4.61;41.30;100505.66;5065422;28;20031;-76
2022/03/13 08:34:19;;;;;;;20.50;10.05;;;;;;;5.09;41.30;100632.09;5048453;28;20028;-76
2022/03/13 08:36:46;;;;;;;17.98;9.13;;;;;;;5.26;40.72;100602.38;5049599;28;20024;-76
2022/03/13 08:39:11;;;;;;;18.98;10.02;;;;;;;5.42;40.56;100624.91;5049379;28;20151;-75
2022/03/13 08:41:37;;;;;;;17.05;10.25;;;;;;;4.61;41.05;100481.84;5049844;28;20562;-75
2022/03/13 08:44:03;;;;;;;17.13;10.73;;;;;;;5.05;41.20;100586.50;5032334;28;20037;-75
2022/03/13 08:46:28;;;;;;;17.60;9.93;;;;;;;4.90;40.95;100553.44;5066789;28;20424;-76
2022/03/13 08:48:54;;;;;;;19.03;9.43;;;;;;;5.81;40.75;100736.34;5049179;28;20037;-75
2022/03/13 08:51:21;;;;;;;18.30;9.53;;;;;;;5.78;40.31;100663.22;5065964;28;20639;-76
2022/03/13 08:53:47;;;;;;;23.77;10.18;;;;;;;5.65;39.95;100551.41;5065945;28;20054;-74
2022/03/13 08:56:14;;;;;;;19.42;9.68;;;;;;;6.53;39.69;100711.47;5067385;28;20576;-75
2022/03/13 08:58:41;;;;;;;17.88;9.90;;;;;;;6.74;39.00;100688.34;5048824;28;20028;-76
2022/03/13 09:01:07;;;;;;;15.98;9.43;;;;;;;5.74;38.72;100420.78;5031710;28;20086;-75
2022/03/13 09:03:33;;;;;;;17.02;9.52;;;;;;;6.22;39.55;100634.66;5049312;28;20040;-75
2022/03/13 09:05:58;;;;;;;19.75;9.73;;;;;;;6.07;39.21;100567.13;5049403;28;20044;-75
2022/03/13 09:08:26;;;;;;;18.90;9.65;;;;;;;6.63;38.42;100563.78;5048989;28;20080;-75
2022/03/13 09:10:52;;;;;;;17.15;8.77;;;;;;;6.78;38.38;100582.75;5064060;28;20040;-75
2022/03/13 09:13:19;;;;;;;22.45;11.32;;;;;;;7.14;38.05;100642.22;5066630;28;20112;-76
2022/03/13 09:15:44;;;;;;;19.90;10.32;;;;;;;7.52;37.25;100592.59;5048313;28;20037;-74
2022/03/13 09:18:10;;;;;;;18.40;9.60;;;;;;;7.14;37.44;100556.38;5048954;28;20031;-77
2022/03/13 09:20:35;;;;;;;17.77;9.90;;;;;;;7.05;37.30;100489.09;5065078;28;20032;-76
2022/03/13 09:23:01;;;;;;;18.15;9.20;;;;;;;8.07;37.11;100716.72;5066953;28;20020;-74
2022/03/13 09:25:26;;;;;;;18.67;10.17;;;;;;;7.77;36.09;100484.78;5065328;28;20393;-74
2022/03/13 09:27:52;;;;;;;16.30;8.87;;;;;;;7.23;36.72;100429.88;5048704;28;20409;-77
2022/03/13 09:30:18;;;;;;;18.57;9.73;;;;;;;7.63;37.22;100606.66;5048356;28;20039;-74
2022/03/13 09:32:44;;;;;;;16.23;9.18;;;;;;;6.89;36.78;100361.50;5066484;28;20473;-74
2022/03/13 09:35:11;;;;;;;;;;;;;;;7.38;36.85;100500.13;5066657;28;20026;-75
2022/03/13 09:37:37;;;;;;;16.55;9.25;;;;;;;9.07;35.95;100722.97;5065310;28;19991;-75
2022/03/13 09:40:03;;;;;;;21.15;9.88;;;;;;;7.46;35.81;100302.81;5048396;28;20040;-75
2022/03/13 09:42:29;;;;;;;17.52;9.63;;;;;;;7.67;36.63;100493.81;5048777;28;20074;-74
2022/03/13 09:44:56;;;;;;;17.77;8.82;;;;;;;8.23;36.23;100570.63;5032261;28;20719;-75
2022/03/13 09:47:21;;;;;;;13.00;8.83;;;;;;;8.73;35.25;100525.84;5066612;28;20072;-75
2022/03/13 09:49:48;;;;;;;15.07;9.13;;;;;;;8.06;35.44;100384.53;5066064;28;20101;-74
2022/03/13 09:52:13;;;;;;;20.85;9.85;;;;;;;6.81;36.36;100194.22;5048545;28;20104;-75
2022/03/13 09:54:39;;;;;;;16.00;9.47;;;;;;;8.10;36.73;100582.63;5048618;28;20485;-74
2022/03/13 09:57:05;;;;;;;16.57;8.67;;;;;;;7.41;36.69;100417.47;5066124;28;20029;-74
2022/03/13 09:59:31;;;;;;;;;;;;;;;7.66;36.60;100481.50;5071358;28;20035;-74
2022/03/13 10:01:56;;;;;;;;;;;;;;;7.75;36.45;100481.44;5068528;28;19912;-74
2022/03/13 10:04:22;;;;;;;14.27;8.05;;;;;;;7.92;36.26;100482.44;5067691;28;20006;-74
2022/03/13 10:07:07;;;;;;;14.40;8.60;;;;;;;8.18;36.54;100570.25;5086476;28;20481;-74
2022/03/13 10:09:33;;;;;;;14.68;8.85;;;;;;;8.60;36.03;100592.78;5067765;28;20569;-74
2022/03/13 10:12:07;;;;;;;15.30;9.23;;;;;;;8.97;35.55;100607.72;5046518;28;20636;-75
2022/03/13 10:14:34;;;;;;;17.40;8.75;;;;;;;10.20;34.76;100728.34;5056280;28;20131;-74
2022/03/13 10:16:59;;;;;;;20.80;10.07;;;;;;;7.75;35.42;100226.34;5030990;28;20060;-74
2022/03/13 10:19:27;;;;;;;18.33;9.00;;;;;;;8.70;35.80;100545.63;5065490;28;20064;-75
2022/03/13 10:22:03;;;;;;;20.98;10.27;;;;;;;9.19;34.95;100553.91;5047736;28;20665;-76
2022/03/13 10:24:39;;;;;;;15.30;8.68;;;;;;;9.86;35.09;100681.22;5068298;28;20032;-75
2022/03/13 10:27:16;;;;;;;18.00;8.95;;;;;;;9.81;33.96;100496.84;5068941;28;20489;-75
2022/03/13 10:29:42;;;;;;;15.88;9.20;;;;;;;9.43;33.71;100331.22;5051021;28;20030;-76
2022/03/13 10:32:09;;;;;;;17.00;9.80;;;;;;;10.93;33.50;100637.78;5069244;28;20028;-75
2022/03/13 10:34:34;;;;;;;;;;;;;;;9.58;32.75;100246.13;5051465;28;20060;-75
2022/03/13 10:37:01;;;;;;;;;;;;;;;8.88;33.64;100203.00;5069042;28;20009;-74
2022/03/13 10:39:27;;;;;;;14.98;9.05;;;;;;;8.91;34.33;100295.00;5068774;28;20035;-75
2022/03/13 10:42:00;;;;;;;13.30;7.78;;;;;;;9.32;33.80;100336.84;5035013;28;20067;-75
2022/03/13 10:44:27;;;;;;;14.02;8.02;;;;;;;9.83;32.72;100319.75;5068093;28;20043;-75
2022/03/13 10:46:55;;;;;;;14.68;7.53;;;;;;;9.70;32.42;100266.09;5068899;28;20024;-75
2022/03/13 10:49:42;;;;;;;12.65;7.93;;;;;;;9.79;32.73;100304.25;5050590;28;20047;-75
2022/03/13 10:52:31;;;;;;;17.33;8.77;;;;;;;9.29;32.05;100109.78;5050249;28;20039;-75
2022/03/13 10:55:19;;;;;;;16.67;8.52;;;;;;;10.35;31.58;100259.81;5068331;28;20781;-76
2022/03/13 10:57:53;;;;;;;15.00;8.55;;;;;;;10.73;32.14;100391.59;5049349;28;20036;-75
2022/03/13 11:00:21;;;;;;;13.13;7.63;;;;;;;10.71;31.84;100339.38;5049951;28;20090;-75
2022/03/13 11:02:46;;;;;;;13.77;8.05;;;;;;;10.35;32.69;100378.03;5034843;28;20027;-75
2022/03/13 11:05:12;;;;;;;15.33;9.23;;;;;;;11.23;31.92;100451.00;5034429;28;20044;-75
2022/03/13 11:07:37;;;;;;;16.07;8.27;;;;;;;10.96;31.61;100338.28;5034279;28;20539;-75
2022/03/13 11:10:06;;;;;;;15.93;8.07;;;;;;;10.60;32.44;100361.13;5051127;28;20063;-75
2022/03/13 11:12:32;;;;;;;14.93;8.48;;;;;;;11.18;31.46;100335.81;5050813;28;20090;-75
2022/03/13 11:15:00;;;;;;;13.10;8.60;;;;;;;11.13;30.81;100228.63;5051392;28;20032;-75
2022/03/13 11:17:30;;;;;;;13.60;8.48;;;;;;;10.10;32.15;100150.47;5067360;28;20114;-75
2022/03/13 11:19:57;;;;;;;17.23;8.23;;;;;;;11.25;31.97;100424.94;5033325;28;20040;-74
2022/03/13 11:22:23;;;;;;;13.05;7.90;;;;;;;11.82;31.58;100488.81;5050571;28;20354;-74